Time;durP1;ratioP1;P1;durP2;ratioP2;P2;SDS_P1;SDS_P2;PMS_P1;PMS_P2;Temp;Humidity;BMP_temperature;BMP_pressure;BME280_temperature;BME280_humidity;BME280_pressure;Samples;Min_cycle;Max_cycle;Signal;HPM_P1;HPM_P2
2021/07/29 06:00:03;;;;;;;7.72;1.90;;;16.80;99.90;;;;;;3626250;39;20362;-90
2021/07/29 06:02:30;;;;;;;5.68;1.45;;;16.80;99.90;;;;;;3620046;39;20078;-88
2021/07/29 06:04:55;;;;;;;7.75;2.25;;;16.80;99.90;;;;;;3612009;39;20307;-87
2021/07/29 06:07:21;;;;;;;5.30;1.60;;;17.30;99.90;;;;;;3615078;39;20404;-88
2021/07/29 06:09:47;;;;;;;4.90;1.75;;;17.40;99.90;;;;;;3618517;39;20047;-86
2021/07/29 06:12:13;;;;;;;9.23;1.90;;;17.70;99.90;;;;;;3611837;39;20326;-87
2021/07/29 06:14:39;;;;;;;7.65;1.65;;;17.30;99.90;;;;;;3613882;39;20062;-87
2021/07/29 06:17:05;;;;;;;7.65;1.80;;;17.40;99.90;;;;;;3613849;39;20112;-87
2021/07/29 06:19:34;;;;;;;13.05;1.95;;;17.00;99.90;;;;;;3612116;39;20042;-84
2021/07/29 06:22:00;;;;;;;6.03;1.63;;;16.90;99.90;;;;;;3615827;39;20056;-86
2021/07/29 06:24:26;;;;;;;6.32;1.92;;;17.30;99.90;;;;;;3605361;39;20046;-86
2021/07/29 06:26:53;;;;;;;9.48;1.73;;;17.00;99.90;;;;;;3612897;39;20460;-88
2021/07/29 06:29:19;;;;;;;10.02;2.13;;;17.00;99.90;;;;;;3616910;39;20421;-87
2021/07/29 06:31:46;;;;;;;11.65;2.38;;;17.30;99.90;;;;;;3605565;39;20457;-85
2021/07/29 06:34:12;;;;;;;10.70;2.10;;;17.10;99.90;;;;;;3603241;39;20059;-87
2021/07/29 06:36:37;;;;;;;7.00;2.40;;;17.20;99.90;;;;;;3610686;39;20135;-87
2021/07/29 06:39:04;;;;;;;10.05;1.77;;;17.30;99.90;;;;;;3604021;39;20051;-86
2021/07/29 06:41:30;;;;;;;17.50;2.10;;;17.60;99.90;;;;;;3616320;39;20131;-85
2021/07/29 06:43:57;;;;;;;7.68;1.83;;;17.40;99.90;;;;;;3613577;39;20043;-86
2021/07/29 06:46:22;;;;;;;10.30;1.77;;;17.20;99.90;;;;;;3616260;39;20047;-85
2021/07/29 06:48:48;;;;;;;10.63;1.92;;;17.70;99.90;;;;;;3600185;39;20336;-85
2021/07/29 06:51:14;;;;;;;7.07;2.08;;;17.50;99.90;;;;;;3613643;39;20138;-85
2021/07/29 06:53:40;;;;;;;8.93;1.73;;;17.70;99.90;;;;;;3611676;39;20353;-86
2021/07/29 06:56:07;;;;;;;8.13;2.30;;;17.40;99.90;;;;;;3607162;39;20058;-86
2021/07/29 06:58:34;;;;;;;7.38;1.92;;;17.60;99.90;;;;;;3626132;39;20045;-88
2021/07/29 07:01:04;;;;;;;11.27;2.20;;;18.10;99.90;;;;;;3629861;39;20049;-87
2021/07/29 07:03:31;;;;;;;7.10;1.52;;;17.70;99.90;;;;;;3624248;39;20081;-86
2021/07/29 07:06:04;;;;;;;8.40;2.30;;;17.50;99.90;;;;;;3611831;39;20053;-87
2021/07/29 07:08:30;;;;;;;6.22;1.90;;;17.90;99.90;;;;;;3606395;39;20043;-90
2021/07/29 07:10:56;;;;;;;8.65;2.33;;;18.30;99.90;;;;;;3610403;39;20483;-87
2021/07/29 07:13:21;;;;;;;9.13;2.28;;;17.70;99.90;;;;;;3607175;39;20529;-86
2021/07/29 07:15:47;;;;;;;7.72;2.42;;;17.80;99.90;;;;;;3605632;39;20051;-86
2021/07/29 07:18:13;;;;;;;9.93;2.83;;;18.20;99.90;;;;;;3604264;39;20059;-85
2021/07/29 07:20:39;;;;;;;9.73;1.95;;;18.40;99.90;;;;;;3604566;39;20429;-85
2021/07/29 07:23:05;;;;;;;10.07;2.10;;;18.30;99.90;;;;;;3604946;39;20043;-83
2021/07/29 07:25:33;;;;;;;9.10;2.22;;;18.60;99.90;;;;;;3605418;39;20056;-86
2021/07/29 07:28:00;;;;;;;7.55;2.42;;;18.00;99.90;;;;;;3605440;39;20059;-85
2021/07/29 07:30:25;;;;;;;11.43;2.00;;;18.20;99.90;;;;;;3596685;39;20373;-87
2021/07/29 07:32:51;;;;;;;14.18;2.67;;;18.30;99.90;;;;;;3606874;39;20047;-86
2021/07/29 07:35:17;;;;;;;12.45;2.63;;;18.60;99.90;;;;;;3608821;39;20056;-87
2021/07/29 07:37:42;;;;;;;8.57;2.03;;;18.10;99.90;;;;;;3611998;39;20059;-86
2021/07/29 07:40:09;;;;;;;9.50;2.20;;;18.00;99.90;;;;;;3610862;39;20513;-87
2021/07/29 07:42:34;;;;;;;14.48;2.17;;;18.20;99.90;;;;;;3610956;39;20047;-86
2021/07/29 07:45:00;;;;;;;11.27;2.30;;;17.80;99.90;;;;;;3606438;39;20048;-86
2021/07/29 07:47:28;;;;;;;8.18;2.20;;;18.80;99.90;;;;;;3601890;39;20059;-87
2021/07/29 07:49:55;;;;;;;7.28;1.75;;;19.00;99.90;;;;;;3610226;39;20112;-87
2021/07/29 07:52:21;;;;;;;7.03;2.78;;;19.10;99.90;;;;;;3595879;39;20048;-87
2021/07/29 07:54:47;;;;;;;11.07;2.47;;;18.70;99.90;;;;;;3599932;39;20410;-85
2021/07/29 07:57:12;;;;;;;10.45;2.47;;;18.90;99.90;;;;;;3593341;39;20068;-85
2021/07/29 07:59:39;;;;;;;9.95;2.40;;;19.20;99.90;;;;;;3599917;39;20205;-85
2021/07/29 08:02:05;;;;;;;7.13;1.70;;;19.00;99.90;;;;;;3604332;39;20047;-87
2021/07/29 08:04:32;;;;;;;8.95;2.05;;;19.20;99.90;;;;;;3604855;39;20059;-87
2021/07/29 08:06:59;;;;;;;14.32;2.42;;;19.10;99.90;;;;;;3604152;39;20569;-85
2021/07/29 08:09:25;;;;;;;11.20;2.03;;;19.10;99.90;;;;;;3599644;39;20048;-87
2021/07/29 08:11:50;;;;;;;12.38;2.08;;;18.90;99.90;;;;;;3605587;39;20055;-87
2021/07/29 08:14:16;;;;;;;12.10;2.92;;;19.20;99.90;;;;;;3605500;39;20058;-86
2021/07/29 08:16:42;;;;;;;12.00;2.65;;;19.10;99.90;;;;;;3606252;39;20058;-86
2021/07/29 08:19:08;;;;;;;10.60;2.50;;;18.50;99.90;;;;;;3605430;39;20132;-86
2021/07/29 08:21:34;;;;;;;10.00;2.33;;;18.50;99.90;;;;;;3605274;39;20132;-87
2021/07/29 08:24:01;;;;;;;9.68;2.78;;;18.80;99.90;;;;;;3605936;39;20060;-88
2021/07/29 08:26:27;;;;;;;12.85;3.78;;;19.20;99.90;;;;;;3604775;39;20054;-88
2021/07/29 08:28:52;;;;;;;11.80;3.70;;;19.20;99.90;;;;;;3591769;39;20365;-87
2021/07/29 08:31:19;;;;;;;8.90;2.50;;;19.10;99.90;;;;;;3601533;39;20398;-87
2021/07/29 08:33:45;;;;;;;9.10;2.67;;;19.60;99.90;;;;;;3604171;39;20407;-86
2021/07/29 08:36:18;;;;;;;9.02;2.67;;;19.80;99.90;;;;;;3609493;39;20079;-87
2021/07/29 08:38:44;;;;;;;;;;;19.20;99.90;;;;;;3605363;39;20100;-87
2021/07/29 08:41:11;;;;;;;6.80;2.20;;;19.00;99.90;;;;;;3606431;39;19983;-85
2021/07/29 08:43:39;;;;;;;9.75;2.13;;;19.30;99.90;;;;;;3610428;39;20069;-84
2021/07/29 08:46:07;;;;;;;8.48;1.70;;;19.80;99.90;;;;;;3605694;39;20360;-86
2021/07/29 08:48:35;;;;;;;9.75;2.05;;;19.50;99.90;;;;;;3597684;39;20399;-85
2021/07/29 08:51:01;;;;;;;5.47;1.95;;;19.60;99.90;;;;;;3606716;39;20059;-87
2021/07/29 08:53:29;;;;;;;7.80;1.60;;;20.10;99.90;;;;;;3594824;39;20047;-87
2021/07/29 08:55:56;;;;;;;8.30;1.77;;;19.80;99.90;;;;;;3595851;39;20119;-89
2021/07/29 08:58:22;;;;;;;8.45;1.27;;;20.30;99.90;;;;;;3603369;39;20066;-85
2021/07/29 09:01:08;;;;;;;5.28;1.95;;;20.40;99.90;;;;;;3596981;39;20359;-86
2021/07/29 09:03:35;;;;;;;9.57;1.77;;;19.80;99.90;;;;;;3595104;39;20089;-87
2021/07/29 09:06:06;;;;;;;4.43;1.30;;;19.40;99.90;;;;;;3604831;39;20428;-86
2021/07/29 09:08:45;;;;;;;5.57;1.63;;;19.80;99.90;;;;;;3604524;39;20409;-87
2021/07/29 09:11:28;;;;;;;10.20;1.80;;;20.20;99.90;;;;;;3603819;39;20055;-87
2021/07/29 09:14:06;;;;;;;8.65;2.13;;;19.60;99.90;;;;;;3605048;39;20238;-86
2021/07/29 09:16:39;;;;;;;3.90;1.25;;;19.50;99.90;;;;;;3595167;39;20052;-88
2021/07/29 09:19:05;;;;;;;;;;;19.30;99.90;;;;;;3600953;39;20055;-85
2021/07/29 09:21:30;;;;;;;6.93;1.95;;;19.10;99.90;;;;;;3603423;39;19947;-87
2021/07/29 09:24:04;;;;;;;5.75;2.58;;;19.50;99.90;;;;;;3593882;39;20054;-89
2021/07/29 09:26:59;;;;;;;4.18;1.20;;;20.50;99.90;;;;;;3603849;39;20136;-86
2021/07/29 09:29:27;;;;;;;6.15;1.83;;;21.10;99.90;;;;;;3592812;39;20047;-87
2021/07/29 09:32:07;;;;;;;8.57;1.95;;;20.60;99.90;;;;;;3592644;39;20127;-86
2021/07/29 09:34:46;;;;;;;5.43;1.38;;;20.40;99.90;;;;;;3599600;39;20379;-85
2021/07/29 09:37:13;;;;;;;4.88;1.30;;;20.90;99.90;;;;;;3602594;39;20095;-84
2021/07/29 09:39:42;;;;;;;6.65;1.30;;;20.80;99.90;;;;;;3599721;39;20442;-87
2021/07/29 09:42:19;;;;;;;5.35;1.70;;;20.10;99.90;;;;;;3603438;39;20296;-86
2021/07/29 09:45:01;;;;;;;7.53;1.70;;;21.40;99.90;;;;;;3603187;39;20130;-84
2021/07/29 09:47:35;;;;;;;6.10;1.33;;;21.30;99.90;;;;;;3593690;39;20047;-87
2021/07/29 09:50:01;;;;;;;6.68;1.67;;;21.40;99.90;;;;;;3596174;39;20047;-88
2021/07/29 09:52:28;;;;;;;6.90;1.15;;;21.10;99.90;;;;;;3604754;39;20442;-86
2021/07/29 09:54:55;;;;;;;6.18;1.25;;;21.80;99.90;;;;;;3606539;39;20345;-88
2021/07/29 09:57:20;;;;;;;5.00;1.65;;;20.90;99.90;;;;;;3614461;39;20136;-88
2021/07/29 09:59:49;;;;;;;6.18;1.60;;;21.70;99.90;;;;;;3614821;39;20355;-87
2021/07/29 10:02:15;;;;;;;4.68;1.50;;;21.90;99.90;;;;;;3604477;39;20043;-86
2021/07/29 10:04:48;;;;;;;9.15;1.67;;;21.70;99.90;;;;;;3597722;39;20422;-88
2021/07/29 10:07:29;;;;;;;5.72;1.63;;;20.80;99.90;;;;;;3595182;39;20394;-87
2021/07/29 10:09:56;;;;;;;8.40;1.80;;;21.50;99.90;;;;;;3594029;39;20047;-85
2021/07/29 10:12:26;;;;;;;6.57;1.50;;;21.90;99.90;;;;;;3603775;39;20060;-86
2021/07/29 10:14:56;;;;;;;6.70;1.73;;;22.10;99.90;;;;;;3594154;39;20414;-85
2021/07/29 10:17:34;;;;;;;6.93;2.00;;;21.00;99.90;;;;;;3603366;39;20059;-86
2021/07/29 10:20:21;;;;;;;8.07;1.98;;;21.50;99.90;;;;;;3603265;39;20414;-87
2021/07/29 10:23:12;;;;;;;4.32;1.52;;;21.80;99.90;;;;;;3602912;39;20063;-85
2021/07/29 10:25:52;;;;;;;4.57;1.67;;;21.20;99.90;;;;;;3593163;39;20116;-84
2021/07/29 10:28:26;;;;;;;9.43;2.15;;;21.50;99.90;;;;;;3597485;39;20059;-86
2021/07/29 10:30:53;;;;;;;7.43;2.40;;;21.20;99.90;;;;;;3596383;39;20051;-86
2021/07/29 10:33:20;;;;;;;9.38;2.33;;;21.60;99.90;;;;;;3595004;39;20050;-88
2021/07/29 10:35:46;;;;;;;6.05;2.45;;;21.30;99.90;;;;;;3605607;39;20059;-88
2021/07/29 10:38:14;;;;;;;8.35;1.85;;;21.50;99.90;;;;;;3604153;39;20402;-87
2021/07/29 10:40:42;;;;;;;5.57;1.55;;;21.60;99.90;;;;;;3603763;39;20201;-87
2021/07/29 10:43:29;;;;;;;6.65;2.15;;;21.90;99.90;;;;;;3603803;39;20087;-87
2021/07/29 10:45:57;;;;;;;10.15;2.05;;;22.00;99.90;;;;;;3604474;39;20390;-85
2021/07/29 10:48:41;;;;;;;10.25;1.85;;;22.20;99.90;;;;;;3605660;39;20060;-84
2021/07/29 10:51:23;;;;;;;7.50;2.03;;;22.40;99.90;;;;;;3597083;39;20063;-86
2021/07/29 10:53:51;;;;;;;6.80;1.63;;;21.90;99.90;;;;;;3596244;39;20107;-85
2021/07/29 10:56:21;;;;;;;8.35;1.83;;;22.10;99.90;;;;;;3604412;39;20514;-88
2021/07/29 10:58:54;;;;;;;7.03;2.00;;;21.40;99.90;;;;;;3603368;39;20083;-87
2021/07/29 11:01:21;;;;;;;10.48;1.98;;;20.60;99.90;;;;;;3600581;39;20048;-89
2021/07/29 11:03:58;;;;;;;3.30;1.40;;;21.30;99.90;;;;;;3606994;39;20135;-88
2021/07/29 11:06:39;;;;;;;3.53;1.48;;;21.70;99.90;;;;;;3605950;39;20405;-88
2021/07/29 11:09:15;;;;;;;6.28;2.03;;;22.10;99.90;;;;;;3601311;39;20087;-90
2021/07/29 11:11:43;;;;;;;7.78;1.55;;;21.80;99.90;;;;;;3591742;39;20061;-88
2021/07/29 11:14:10;;;;;;;5.30;1.60;;;22.50;99.90;;;;;;3603196;39;20270;-91
2021/07/29 11:16:40;;;;;;;4.97;1.83;;;22.50;99.90;;;;;;3604660;39;20043;-87
2021/07/29 11:19:06;;;;;;;9.45;1.63;;;23.10;99.90;;;;;;3597683;39;20071;-89
2021/07/29 11:21:33;;;;;;;5.80;1.65;;;22.00;99.90;;;;;;3606401;39;20063;-87
2021/07/29 11:23:59;;;;;;;6.72;1.50;;;21.60;99.90;;;;;;3597881;39;20468;-89
2021/07/29 11:26:40;;;;;;;6.50;1.55;;;21.50;99.90;;;;;;3601933;39;20047;-89
2021/07/29 11:29:10;;;;;;;6.15;1.42;;;22.10;99.90;;;;;;3596958;39;20048;-88
2021/07/29 11:31:43;;;;;;;8.40;1.77;;;21.70;99.90;;;;;;3598992;39;20054;-89
2021/07/29 11:34:11;;;;;;;8.35;1.75;;;21.90;99.90;;;;;;3606280;39;20408;-89
2021/07/29 11:36:37;;;;;;;5.28;1.35;;;22.00;99.90;;;;;;3600644;39;20059;-90
2021/07/29 11:39:06;;;;;;;5.60;1.33;;;21.50;99.90;;;;;;3608297;39;20136;-89
2021/07/29 11:41:59;;;;;;;6.10;1.90;;;21.20;99.90;;;;;;3616749;39;20292;-89
2021/07/29 11:44:40;;;;;;;4.25;1.17;;;20.90;99.90;;;;;;3614399;39;20047;-88
2021/07/29 11:47:07;;;;;;;3.97;1.15;;;21.20;99.90;;;;;;3603183;39;20051;-87
2021/07/29 11:49:50;;;;;;;6.15;1.58;;;21.70;99.90;;;;;;3612470;39;20062;-88
2021/07/29 11:52:18;;;;;;;6.28;1.77;;;21.10;99.90;;;;;;3610623;39;20051;-88
2021/07/29 11:54:44;;;;;;;11.30;2.35;;;21.30;99.90;;;;;;3612220;39;20330;-90
2021/07/29 11:57:11;;;;;;;6.75;1.27;;;21.50;99.90;;;;;;3602467;39;20051;-91
2021/07/29 11:59:46;;;;;;;5.70;1.90;;;22.50;99.90;;;;;;3598199;39;20039;-88
2021/07/29 12:02:19;;;;;;;7.97;1.83;;;20.30;99.90;;;;;;3607389;39;20064;-87
2021/07/29 12:04:45;;;;;;;3.25;1.38;;;21.20;99.90;;;;;;3597113;39;20056;-89
2021/07/29 12:07:13;;;;;;;6.55;1.48;;;21.80;99.90;;;;;;3596114;39;20060;-89
2021/07/29 12:09:42;;;;;;;7.25;1.52;;;21.80;99.90;;;;;;3595789;39;20076;-89
2021/07/29 12:12:08;;;;;;;4.80;1.60;;;21.70;99.90;;;;;;3605761;39;20211;-87
2021/07/29 12:14:35;;;;;;;7.50;1.50;;;21.90;99.90;;;;;;3605528;39;20122;-88
2021/07/29 12:17:01;;;;;;;8.70;1.30;;;21.80;99.90;;;;;;3595894;39;20059;-88
2021/07/29 12:19:27;;;;;;;9.02;2.03;;;21.70;99.90;;;;;;3605141;39;20056;-87
2021/07/29 12:21:53;;;;;;;5.93;1.70;;;21.70;99.90;;;;;;3608020;39;20077;-87
2021/07/29 12:24:19;;;;;;;5.20;1.73;;;21.60;99.90;;;;;;3607119;39;20051;-89
2021/07/29 12:27:09;;;;;;;8.95;2.08;;;21.40;99.90;;;;;;3599218;39;20067;-87
2021/07/29 12:29:45;;;;;;;6.65;1.63;;;22.30;99.90;;;;;;3605763;39;20052;-91
2021/07/29 12:32:22;;;;;;;8.23;2.10;;;22.40;99.90;;;;;;3604918;39;20093;-90
2021/07/29 12:34:50;;;;;;;5.53;1.70;;;22.10;99.90;;;;;;3605544;39;20492;-88
2021/07/29 12:37:36;;;;;;;4.97;1.55;;;22.10;99.90;;;;;;3605861;39;20051;-89
2021/07/29 12:40:06;;;;;;;6.35;1.80;;;22.50;99.90;;;;;;3606054;39;20052;-88
2021/07/29 12:42:33;;;;;;;6.72;1.55;;;23.00;99.90;;;;;;3594735;39;20039;-86
2021/07/29 12:45:05;;;;;;;4.18;1.33;;;22.90;99.40;;;;;;3604746;39;20463;-86
2021/07/29 12:47:31;;;;;;;;;;;21.70;99.90;;;;;;3603867;39;20059;-85
2021/07/29 12:49:57;;;;;;;10.65;1.67;;;21.80;99.90;;;;;;3603408;39;19985;-87
2021/07/29 12:52:24;;;;;;;5.97;1.75;;;21.20;99.90;;;;;;3604281;39;20047;-84
2021/07/29 12:55:09;;;;;;;5.85;1.50;;;22.10;99.90;;;;;;3604068;39;20123;-87
2021/07/29 12:57:52;;;;;;;6.45;1.60;;;23.00;99.90;;;;;;3595500;39;20066;-87
2021/07/29 13:00:22;;;;;;;4.65;1.35;;;22.00;99.90;;;;;;3604327;39;20291;-86
2021/07/29 13:02:49;;;;;;;7.40;1.45;;;22.40;99.90;;;;;;3603482;39;20052;-86
2021/07/29 13:05:14;;;;;;;9.50;1.48;;;22.90;99.90;;;;;;3604537;39;20393;-86
2021/07/29 13:07:40;;;;;;;6.93;1.48;;;22.30;99.90;;;;;;3594677;39;20039;-85
2021/07/29 13:10:08;;;;;;;4.30;1.33;;;22.70;99.60;;;;;;3603641;39;20057;-86
2021/07/29 13:12:37;;;;;;;7.97;1.38;;;23.00;99.90;;;;;;3604570;39;20043;-87
2021/07/29 13:15:06;;;;;;;9.65;1.77;;;22.60;99.90;;;;;;3604073;39;20303;-87
2021/07/29 13:17:32;;;;;;;5.70;1.48;;;22.70;99.90;;;;;;3602019;39;20094;-85
2021/07/29 13:20:00;;;;;;;7.72;1.27;;;22.10;98.00;;;;;;3604445;39;20474;-89
2021/07/29 13:22:29;;;;;;;7.28;1.60;;;22.10;99.90;;;;;;3605597;39;20322;-86
2021/07/29 13:24:58;;;;;;;7.90;1.23;;;22.40;99.90;;;;;;3610241;39;20055;-86
2021/07/29 13:27:24;;;;;;;2.53;1.20;;;22.70;99.30;;;;;;3610509;39;20044;-86
2021/07/29 13:29:50;;;;;;;5.93;1.70;;;21.90;99.90;;;;;;3603895;39;20044;-86
2021/07/29 13:32:16;;;;;;;5.28;1.52;;;21.70;99.90;;;;;;3603835;39;20218;-87
2021/07/29 13:34:42;;;;;;;6.05;1.27;;;21.20;99.90;;;;;;3605289;39;20059;-87
2021/07/29 13:37:07;;;;;;;11.02;1.40;;;22.00;99.90;;;;;;3605001;39;20035;-87
2021/07/29 13:39:33;;;;;;;5.88;1.40;;;22.80;99.90;;;;;;3604477;39;20059;-84
2021/07/29 13:41:59;;;;;;;5.22;1.30;;;21.90;99.90;;;;;;3604630;39;20063;-87
2021/07/29 13:44:25;;;;;;;8.02;1.92;;;22.10;99.90;;;;;;3604238;39;20055;-86
2021/07/29 13:46:51;;;;;;;6.07;1.70;;;21.80;99.90;;;;;;3599847;39;20387;-88
2021/07/29 13:49:16;;;;;;;7.95;3.72;;;22.60;99.90;;;;;;3602014;39;20039;-88
2021/07/29 13:51:42;;;;;;;6.68;1.73;;;22.50;99.90;;;;;;3605001;39;20051;-87
2021/07/29 13:54:08;;;;;;;7.50;2.35;;;22.30;99.90;;;;;;3606645;39;20441;-89
2021/07/29 13:56:34;;;;;;;12.43;2.28;;;22.80;99.90;;;;;;3602635;39;20353;-90
2021/07/29 13:59:01;;;;;;;5.93;2.10;;;22.50;99.90;;;;;;3601362;39;20387;-84
2021/07/29 14:01:28;;;;;;;9.40;1.75;;;22.70;99.90;;;;;;3603515;39;20079;-84
2021/07/29 14:03:55;;;;;;;5.53;1.42;;;22.50;99.90;;;;;;3595199;39;20040;-85
2021/07/29 14:06:21;;;;;;;6.50;1.35;;;22.50;99.90;;;;;;3601508;39;20051;-85
2021/07/29 14:08:52;;;;;;;8.60;1.95;;;22.80;99.90;;;;;;3603618;39;20357;-86
2021/07/29 14:11:28;;;;;;;10.98;2.35;;;22.10;99.90;;;;;;3600159;39;20328;-85
2021/07/29 14:13:54;;;;;;;6.38;1.25;;;22.50;98.90;;;;;;3604296;39;20056;-86
2021/07/29 14:16:19;;;;;;;5.47;1.60;;;22.50;99.90;;;;;;3602778;39;20047;-86
2021/07/29 14:18:49;;;;;;;9.43;1.52;;;22.60;99.40;;;;;;3604640;39;20398;-85
2021/07/29 14:21:25;;;;;;;7.97;1.60;;;21.80;99.90;;;;;;3592360;39;20063;-86
2021/07/29 14:23:51;;;;;;;4.43;1.25;;;22.00;99.90;;;;;;3599097;39;20440;-87
2021/07/29 14:26:17;;;;;;;6.40;1.65;;;22.10;99.90;;;;;;3593571;40;20048;-85
2021/07/29 14:28:43;;;;;;;8.38;2.58;;;22.10;99.90;;;;;;3598719;39;20059;-86
2021/07/29 14:31:08;;;;;;;6.60;1.55;;;22.20;99.90;;;;;;3595316;39;20195;-85
2021/07/29 14:33:34;;;;;;;6.50;2.08;;;22.40;99.90;;;;;;3595886;39;20160;-86
2021/07/29 14:36:02;;;;;;;9.15;2.00;;;22.00;99.90;;;;;;3595081;39;20054;-86
2021/07/29 14:38:28;;;;;;;6.47;1.83;;;21.50;99.90;;;;;;3605965;39;20055;-85
2021/07/29 14:40:56;;;;;;;6.05;1.50;;;21.50;99.90;;;;;;3605091;39;20055;-86
2021/07/29 14:43:24;;;;;;;5.90;1.90;;;21.80;99.90;;;;;;3605324;39;20271;-85
2021/07/29 14:48:41;;;;;;;6.80;2.38;;;22.10;99.90;;;;;;3604894;39;20086;-87
2021/07/29 14:51:07;;;;;;;7.80;1.83;;;22.20;99.90;;;;;;3600654;39;20047;-82
2021/07/29 14:53:33;;;;;;;4.18;1.23;;;21.80;99.90;;;;;;3605569;39;20537;-83
2021/07/29 14:56:10;;;;;;;10.23;1.77;;;22.10;99.90;;;;;;3599703;39;20056;-85
2021/07/29 15:18:26;;;;;;;9.93;1.40;;;21.90;99.90;;;;;;3604837;39;20048;-83
2021/07/29 16:08:00;;;;;;;8.25;1.52;;;21.00;99.90;;;;;;3605581;39;20043;-87
2021/07/29 16:10:26;;;;;;;6.33;1.80;;;21.20;99.90;;;;;;3605432;39;20327;-89
2021/07/29 16:12:55;;;;;;;8.20;2.38;;;20.90;99.90;;;;;;3605702;39;20568;-89
2021/07/29 16:15:21;;;;;;;7.22;1.75;;;20.90;99.90;;;;;;3605273;39;20265;-87
2021/07/29 16:17:47;;;;;;;5.93;2.13;;;21.00;99.90;;;;;;3605780;39;20417;-86
2021/07/29 16:20:13;;;;;;;8.32;2.08;;;21.00;99.90;;;;;;3592939;39;20455;-85
2021/07/29 16:22:39;;;;;;;7.78;1.85;;;21.20;99.90;;;;;;3607559;39;20047;-87
2021/07/29 16:25:05;;;;;;;7.15;2.03;;;21.10;99.90;;;;;;3596832;39;20398;-88
2021/07/29 16:27:30;;;;;;;5.35;1.75;;;21.10;99.90;;;;;;3605483;39;20043;-89
2021/07/29 16:29:56;;;;;;;7.15;2.22;;;20.70;99.90;;;;;;3605577;39;20338;-85
2021/07/29 16:32:22;;;;;;;7.63;2.00;;;20.50;99.90;;;;;;3607166;39;20063;-86
2021/07/29 16:34:47;;;;;;;5.75;1.80;;;20.50;99.90;;;;;;3604783;39;20058;-88
2021/07/29 16:37:13;;;;;;;5.25;1.58;;;20.60;99.90;;;;;;3609981;39;20083;-85
2021/07/29 16:39:41;;;;;;;9.90;2.08;;;21.20;99.90;;;;;;3598831;39;20397;-85
2021/07/29 16:42:08;;;;;;;8.95;1.70;;;21.20;99.90;;;;;;3602456;39;20134;-87
2021/07/29 16:44:35;;;;;;;7.53;1.60;;;21.30;99.90;;;;;;3598222;39;20330;-88
2021/07/29 16:47:01;;;;;;;8.48;1.85;;;20.30;99.90;;;;;;3604103;39;20051;-87
2021/07/29 16:49:27;;;;;;;5.63;2.08;;;20.70;99.90;;;;;;3606361;39;20047;-88
2021/07/29 16:51:55;;;;;;;7.63;2.13;;;20.60;99.90;;;;;;3594505;39;20132;-87
2021/07/29 16:54:21;;;;;;;6.43;1.75;;;20.60;99.90;;;;;;3601686;39;20047;-86
2021/07/29 16:56:47;;;;;;;10.93;2.28;;;20.60;99.90;;;;;;3606956;39;20051;-87
2021/07/29 16:59:13;;;;;;;3.88;1.33;;;20.30;99.90;;;;;;3605485;39;20051;-87
2021/07/29 17:01:39;;;;;;;7.90;2.03;;;20.20;99.90;;;;;;3595737;39;20048;-89
2021/07/29 17:04:05;;;;;;;6.32;2.47;;;20.20;99.90;;;;;;3605331;39;20054;-88
2021/07/29 17:06:31;;;;;;;4.53;1.50;;;20.30;99.90;;;;;;3604914;39;20345;-88
2021/07/29 17:08:57;;;;;;;7.65;1.60;;;20.00;99.90;;;;;;3595059;39;20055;-87
2021/07/29 17:11:24;;;;;;;6.88;1.77;;;20.10;99.90;;;;;;3607899;39;20082;-85
2021/07/29 17:13:51;;;;;;;6.75;1.95;;;20.10;99.90;;;;;;3606700;39;20456;-86
2021/07/29 17:16:17;;;;;;;8.43;2.33;;;20.00;99.90;;;;;;3597138;39;20079;-86
2021/07/29 17:18:43;;;;;;;9.82;2.10;;;20.40;99.90;;;;;;3607962;39;20104;-87
2021/07/29 17:21:08;;;;;;;5.50;1.98;;;20.30;99.90;;;;;;3608576;39;20059;-85
2021/07/29 17:23:37;;;;;;;5.07;1.58;;;20.30;99.90;;;;;;3605398;39;20047;-86
2021/07/29 17:26:03;;;;;;;7.95;2.10;;;20.10;99.90;;;;;;3607204;39;20317;-85
2021/07/29 17:28:29;;;;;;;13.02;2.10;;;19.60;99.90;;;;;;3610425;39;20061;-85
2021/07/29 17:30:55;;;;;;;8.77;2.28;;;20.00;99.90;;;;;;3595242;39;20040;-87
2021/07/29 17:33:21;;;;;;;12.23;1.73;;;20.10;99.90;;;;;;3605304;39;20052;-86
2021/07/29 17:35:47;;;;;;;7.18;1.45;;;19.70;99.90;;;;;;3604539;39;20124;-86
2021/07/29 17:38:13;;;;;;;6.72;2.00;;;20.00;99.90;;;;;;3607844;39;20048;-86
2021/07/29 17:40:38;;;;;;;7.55;1.90;;;19.90;99.90;;;;;;3598805;39;20152;-88
2021/07/29 17:43:04;;;;;;;10.43;2.20;;;19.70;99.90;;;;;;3605242;39;20058;-86
2021/07/29 17:45:30;;;;;;;8.75;1.88;;;19.70;99.90;;;;;;3602006;39;20094;-86
2021/07/29 17:47:55;;;;;;;5.53;2.08;;;19.80;99.90;;;;;;3604787;39;20051;-87
2021/07/29 17:50:21;;;;;;;7.82;2.83;;;19.70;99.90;;;;;;3604928;39;20052;-87
2021/07/29 17:52:47;;;;;;;8.52;4.68;;;19.90;99.90;;;;;;3607053;39;20063;-85
2021/07/29 17:55:13;;;;;;;10.27;2.63;;;20.10;99.90;;;;;;3602036;39;20048;-86
2021/07/29 17:57:38;;;;;;;10.45;2.15;;;19.70;99.90;;;;;;3591387;39;20063;-87
2021/07/29 18:00:05;;;;;;;7.05;2.00;;;20.10;99.90;;;;;;3598278;39;20044;-88
2021/07/29 18:02:31;;;;;;;7.93;2.22;;;19.60;99.90;;;;;;3596630;39;20058;-88
2021/07/29 18:04:56;;;;;;;11.00;2.20;;;20.00;99.90;;;;;;3604545;39;20047;-87
2021/07/29 18:07:23;;;;;;;10.73;2.83;;;19.90;99.90;;;;;;3605143;39;20056;-87
2021/07/29 18:09:49;;;;;;;6.80;2.20;;;20.00;99.90;;;;;;3604432;39;20079;-84
2021/07/29 18:12:15;;;;;;;6.28;1.85;;;19.50;99.90;;;;;;3595810;39;20040;-87
2021/07/29 18:14:41;;;;;;;9.75;2.47;;;19.50;99.90;;;;;;3604003;39;20055;-89
2021/07/29 18:17:11;;;;;;;11.85;2.60;;;19.30;99.90;;;;;;3598015;39;20050;-87
2021/07/29 18:19:37;;;;;;;10.70;2.03;;;19.30;99.90;;;;;;3598212;39;20080;-91
2021/07/29 18:22:02;;;;;;;9.55;2.40;;;19.60;99.90;;;;;;3604924;39;20051;-88
2021/07/29 18:24:28;;;;;;;6.93;2.22;;;19.60;99.90;;;;;;3596373;39;20047;-88
2021/07/29 18:26:55;;;;;;;10.13;2.53;;;19.60;99.90;;;;;;3604598;39;20074;-87
2021/07/29 18:29:21;;;;;;;8.98;2.33;;;19.40;99.90;;;;;;3604367;39;20055;-89
2021/07/29 18:31:47;;;;;;;10.85;2.65;;;19.50;99.90;;;;;;3603407;39;20460;-87
2021/07/29 18:34:13;;;;;;;11.00;3.38;;;19.10;99.90;;;;;;3603018;39;20052;-87
2021/07/29 18:36:38;;;;;;;15.32;2.83;;;18.90;99.90;;;;;;3597758;39;20084;-88
2021/07/29 18:39:04;;;;;;;11.82;3.72;;;19.20;99.90;;;;;;3597838;39;20231;-87
2021/07/29 18:41:30;;;;;;;12.13;3.20;;;19.40;99.90;;;;;;3605041;39;20054;-89
2021/07/29 18:43:56;;;;;;;11.68;3.13;;;18.90;99.90;;;;;;3608324;39;20055;-88
2021/07/29 18:46:21;;;;;;;12.75;3.20;;;19.20;99.90;;;;;;3590426;39;20043;-91
2021/07/29 18:48:47;;;;;;;11.73;2.92;;;18.70;99.90;;;;;;3600358;39;20517;-87
2021/07/29 18:51:13;;;;;;;11.93;3.42;;;18.90;99.90;;;;;;3610607;39;20151;-88
2021/07/29 18:53:39;;;;;;;15.05;2.83;;;18.80;99.90;;;;;;3598783;39;20058;-89
2021/07/29 18:56:05;;;;;;;13.38;2.67;;;18.90;99.90;;;;;;3604897;39;20067;-89
2021/07/29 18:58:32;;;;;;;10.57;3.53;;;19.00;99.90;;;;;;3597776;40;20052;-90
2021/07/29 19:00:58;;;;;;;10.93;3.45;;;18.60;99.90;;;;;;3599343;39;20052;-87
2021/07/29 19:03:23;;;;;;;11.60;3.22;;;18.50;99.90;;;;;;3595377;40;20052;-88
2021/07/29 19:05:49;;;;;;;17.27;3.50;;;18.70;99.90;;;;;;3598573;39;20165;-89
2021/07/29 19:08:15;;;;;;;13.88;3.63;;;18.50;99.90;;;;;;3598045;40;20299;-90
2021/07/29 19:10:40;;;;;;;13.52;3.33;;;18.30;99.90;;;;;;3598772;40;20047;-89
2021/07/29 19:13:06;;;;;;;13.85;3.20;;;18.40;99.90;;;;;;3591022;40;20051;-89
2021/07/29 19:15:32;;;;;;;14.23;3.33;;;18.20;99.90;;;;;;3601438;40;20072;-89
2021/07/29 19:18:00;;;;;;;12.27;4.03;;;18.30;99.90;;;;;;3598034;40;20055;-88
2021/07/29 19:20:25;;;;;;;11.38;3.67;;;18.10;99.90;;;;;;3597131;39;20430;-92
2021/07/29 19:22:51;;;;;;;12.63;4.00;;;18.10;99.90;;;;;;3596159;40;20052;-88
2021/07/29 19:25:17;;;;;;;11.88;4.22;;;18.10;99.90;;;;;;3596647;40;20044;-89
2021/07/29 19:27:43;;;;;;;12.95;4.53;;;18.10;99.90;;;;;;3599706;40;20383;-90
2021/07/29 19:30:09;;;;;;;15.27;4.50;;;17.90;99.90;;;;;;3599509;39;20439;-90
2021/07/29 19:32:34;;;;;;;12.90;3.78;;;17.80;99.90;;;;;;3605238;40;20059;-90
2021/07/29 19:35:00;;;;;;;21.42;4.68;;;18.00;99.90;;;;;;3606170;40;20040;-88
2021/07/29 19:37:26;;;;;;;14.10;4.55;;;17.80;99.90;;;;;;3599606;40;20055;-89
2021/07/29 19:39:52;;;;;;;17.20;3.95;;;17.80;99.90;;;;;;3600416;40;20161;-88
2021/07/29 19:42:17;;;;;;;19.00;4.25;;;17.80;99.90;;;;;;3595385;40;20052;-90
2021/07/29 19:44:44;;;;;;;20.70;5.40;;;17.70;99.90;;;;;;3594764;40;20070;-89
2021/07/29 19:47:10;;;;;;;13.38;4.13;;;17.70;99.90;;;;;;3603027;39;20090;-90
2021/07/29 19:49:36;;;;;;;20.60;5.57;;;17.60;99.90;;;;;;3605744;40;20048;-86
2021/07/29 19:52:02;;;;;;;12.80;4.05;;;17.50;99.90;;;;;;3607279;40;20342;-92
2021/07/29 19:54:28;;;;;;;17.02;4.05;;;17.70;99.90;;;;;;3602254;40;20532;-88
2021/07/29 19:56:54;;;;;;;14.35;4.68;;;17.70;99.90;;;;;;3600241;40;20322;-89
2021/07/29 19:59:19;;;;;;;23.42;4.60;;;17.60;99.90;;;;;;3608018;39;20071;-90